createdAt,value
2023-05-22T00:00:19.162Z,96086.94
2023-05-22T00:02:46.145Z,96081.53
2023-05-22T00:05:14.811Z,96081.41
2023-05-22T00:07:43.187Z,96070.75
2023-05-22T00:10:10.955Z,96073.91
2023-05-22T00:12:38.120Z,96072.50
2023-05-22T00:15:06.156Z,96067.47
2023-05-22T00:17:34.061Z,96065.75
2023-05-22T00:20:08.313Z,96069.75
2023-05-22T00:22:38.123Z,96076.13
2023-05-22T00:25:06.720Z,96068.38
2023-05-22T00:27:34.504Z,96071.59
2023-05-22T00:30:01.869Z,96076.38
2023-05-22T00:32:28.847Z,96071.53
2023-05-22T00:34:55.824Z,96074.00
2023-05-22T00:37:23.087Z,96064.78
2023-05-22T00:39:49.964Z,96065.44
2023-05-22T00:42:18.162Z,96076.16
2023-05-22T00:44:45.191Z,96070.84
2023-05-22T00:47:12.075Z,96062.81
2023-05-22T00:49:38.996Z,96068.66
2023-05-22T00:52:06.063Z,96076.06
2023-05-22T00:54:33.339Z,96064.31
2023-05-22T00:57:01.582Z,96069.03
2023-05-22T00:59:29.455Z,96069.41
2023-05-22T01:01:57.292Z,96066.31
2023-05-22T01:04:26.293Z,96076.31
2023-05-22T01:06:54.065Z,96062.97
2023-05-22T01:09:20.951Z,96068.28
2023-05-22T01:12:24.785Z,96065.94
2023-05-22T01:15:04.615Z,96079.38
2023-05-22T01:17:48.442Z,96071.81
2023-05-22T01:20:37.006Z,96074.16
2023-05-22T01:23:47.795Z,96086.63
2023-05-22T01:27:06.898Z,96083.06
2023-05-22T01:29:54.695Z,96076.78
2023-05-22T01:32:25.104Z,96078.72
2023-05-22T01:34:56.959Z,96084.03
2023-05-22T01:37:24.866Z,96082.44
2023-05-22T01:39:52.485Z,96084.41
2023-05-22T01:42:19.827Z,96084.34
2023-05-22T01:44:48.990Z,96089.38
2023-05-22T01:47:16.303Z,96083.41
2023-05-22T01:49:43.865Z,96086.78
2023-05-22T01:52:46.363Z,96091.78
2023-05-22T01:55:21.221Z,96090.50
2023-05-22T01:58:21.476Z,96094.44
2023-05-22T02:00:51.579Z,96086.47
2023-05-22T02:03:22.797Z,96090.69
2023-05-22T02:05:55.583Z,96092.13
2023-05-22T02:08:23.128Z,96093.91
2023-05-22T02:10:52.453Z,96086.66
2023-05-22T02:13:19.390Z,96097.75
2023-05-22T02:15:47.794Z,96091.13
2023-05-22T02:18:14.766Z,96100.16
2023-05-22T02:20:42.319Z,96098.38
2023-05-22T02:23:09.222Z,96090.97
2023-05-22T02:25:36.052Z,96097.31
2023-05-22T02:28:02.977Z,96099.19
2023-05-22T02:30:29.808Z,96102.56
2023-05-22T02:32:58.339Z,96098.28
2023-05-22T02:35:25.357Z,96094.81
2023-05-22T02:37:52.258Z,96095.06
2023-05-22T02:40:19.215Z,96097.84
2023-05-22T02:42:46.090Z,96096.41
2023-05-22T02:45:13.050Z,96100.88
2023-05-22T02:47:39.947Z,96102.25
2023-05-22T02:50:07.896Z,96093.88
2023-05-22T02:52:35.238Z,96095.06
2023-05-22T02:55:02.141Z,96093.38
2023-05-22T02:57:28.994Z,96094.88
2023-05-22T02:59:57.553Z,96098.22
2023-05-22T03:02:28.373Z,96094.19
2023-05-22T03:04:58.892Z,96100.44
2023-05-22T03:07:31.798Z,96101.88
2023-05-22T03:09:58.672Z,96106.50
2023-05-22T03:12:25.512Z,96101.00
2023-05-22T03:14:52.372Z,96094.53
2023-05-22T03:17:19.261Z,96102.38
2023-05-22T03:19:46.117Z,96100.09
2023-05-22T03:22:12.977Z,96106.31
2023-05-22T03:24:39.825Z,96106.81
2023-05-22T03:27:07.526Z,96104.16
2023-05-22T03:29:34.403Z,96110.50
2023-05-22T03:32:03.471Z,96116.00
2023-05-22T03:34:32.156Z,96118.53
2023-05-22T03:36:59.130Z,96121.03
2023-05-22T03:39:25.976Z,96121.97
2023-05-22T03:41:52.864Z,96117.16
2023-05-22T03:44:19.694Z,96119.56
2023-05-22T03:46:46.689Z,96122.44
2023-05-22T03:49:13.560Z,96121.97
2023-05-22T03:51:40.388Z,96118.28
2023-05-22T03:54:07.319Z,96110.94
2023-05-22T03:56:34.797Z,96116.56
2023-05-22T03:59:01.610Z,96117.38
2023-05-22T04:01:29.835Z,96130.03
2023-05-22T04:03:56.765Z,96120.72
2023-05-22T04:06:23.709Z,96120.38
2023-05-22T04:08:50.618Z,96110.44
2023-05-22T04:11:18.503Z,96114.59
2023-05-22T04:13:45.907Z,96118.06
2023-05-22T04:16:12.853Z,96127.16
2023-05-22T04:18:39.875Z,96118.75
2023-05-22T04:21:09.657Z,96120.84
2023-05-22T04:23:37.121Z,96127.06
2023-05-22T04:26:03.969Z,96130.75
2023-05-22T04:28:30.812Z,96128.56
2023-05-22T04:30:57.871Z,96130.59
2023-05-22T04:33:24.788Z,96123.44
2023-05-22T04:35:52.121Z,96135.84
2023-05-22T04:38:19.079Z,96137.09
2023-05-22T04:40:46.069Z,96132.47
2023-05-22T04:43:13.744Z,96134.75
2023-05-22T04:45:42.211Z,96140.00
2023-05-22T04:48:09.176Z,96135.59
2023-05-22T04:50:36.145Z,96137.88
2023-05-22T04:53:04.427Z,96136.97
2023-05-22T04:55:34.854Z,96147.28
2023-05-22T04:58:01.711Z,96125.75
2023-05-22T05:00:28.958Z,96132.81
2023-05-22T05:02:57.481Z,96133.56
2023-05-22T05:05:24.630Z,96136.34
2023-05-22T05:07:51.788Z,96131.06
2023-05-22T05:10:19.105Z,96140.06
2023-05-22T05:12:46.090Z,96136.03
2023-05-22T05:15:12.958Z,96137.28
2023-05-22T05:17:39.948Z,96136.34
2023-05-22T05:20:07.889Z,96133.63
2023-05-22T05:22:35.054Z,96132.97
2023-05-22T05:25:02.012Z,96135.31
2023-05-22T05:27:28.864Z,96144.78
2023-05-22T05:29:56.184Z,96143.38
2023-05-22T05:32:23.323Z,96144.94
2023-05-22T05:34:50.574Z,96141.56
2023-05-22T05:37:17.470Z,96141.34
2023-05-22T05:39:44.342Z,96138.06
2023-05-22T05:42:11.271Z,96137.84
2023-05-22T05:44:38.207Z,96134.59
2023-05-22T05:47:05.584Z,96137.41
2023-05-22T05:49:35.648Z,96134.75
2023-05-22T05:52:03.030Z,96143.81
2023-05-22T05:54:29.922Z,96140.72
2023-05-22T05:56:56.823Z,96137.69
2023-05-22T05:59:24.393Z,96135.09
2023-05-22T06:01:51.423Z,96137.75
2023-05-22T06:04:18.297Z,96139.97
2023-05-22T06:06:45.157Z,96136.31
2023-05-22T06:09:12.192Z,96134.13
2023-05-22T06:11:39.061Z,96129.59
2023-05-22T06:14:07.393Z,96139.06
2023-05-22T06:16:34.386Z,96141.84
2023-05-22T06:19:01.549Z,96144.50
2023-05-22T06:21:28.496Z,96140.69
2023-05-22T06:23:55.639Z,96143.44
2023-05-22T06:26:23.544Z,96147.69
2023-05-22T06:28:51.662Z,96134.84
2023-05-22T06:31:18.718Z,96138.59
2023-05-22T06:33:45.765Z,96145.44
2023-05-22T06:36:12.805Z,96134.31
2023-05-22T06:38:39.719Z,96136.34
2023-05-22T06:41:07.952Z,96136.22
2023-05-22T06:43:34.868Z,96135.41
2023-05-22T06:46:01.878Z,96134.91
2023-05-22T06:48:28.730Z,96132.97
2023-05-22T06:50:55.668Z,96142.91
2023-05-22T06:53:23.856Z,96143.75
2023-05-22T06:55:51.130Z,96138.84
2023-05-22T06:58:18.655Z,96144.63
2023-05-22T07:00:45.554Z,96144.03
2023-05-22T07:03:12.542Z,96155.66
2023-05-22T07:05:39.476Z,96149.38
2023-05-22T07:08:08.332Z,96151.88
2023-05-22T07:10:35.352Z,96155.72
2023-05-22T07:13:02.225Z,96152.41
2023-05-22T07:15:29.113Z,96153.19
2023-05-22T07:17:56.078Z,96147.44
2023-05-22T07:20:23.039Z,96149.38
2023-05-22T07:22:51.784Z,96154.50
2023-05-22T07:25:18.692Z,96159.28
2023-05-22T07:27:45.577Z,96161.72
2023-05-22T07:30:13.121Z,96167.13
2023-05-22T07:32:40.273Z,96161.13
2023-05-22T07:35:07.982Z,96158.94
2023-05-22T07:37:35.949Z,96158.63
2023-05-22T07:40:07.710Z,96148.78
2023-05-22T07:42:34.645Z,96165.53
2023-05-22T07:45:02.306Z,96162.50
2023-05-22T07:47:29.190Z,96167.53
2023-05-22T07:49:56.149Z,96164.63
2023-05-22T07:52:23.802Z,96160.19
2023-05-22T07:54:50.872Z,96163.09
2023-05-22T07:57:17.829Z,96155.13
2023-05-22T07:59:45.405Z,96155.31
2023-05-22T08:02:12.431Z,96150.88
2023-05-22T08:04:39.673Z,96155.41
2023-05-22T08:07:07.034Z,96145.34
2023-05-22T08:09:35.118Z,96148.59
2023-05-22T08:12:02.619Z,96156.63
2023-05-22T08:14:30.169Z,96147.09
2023-05-22T08:16:58.982Z,96160.31
2023-05-22T08:19:26.301Z,96150.69
2023-05-22T08:21:58.074Z,96148.94
2023-05-22T08:24:30.396Z,96144.53
2023-05-22T08:27:00.960Z,96144.91
2023-05-22T08:29:28.722Z,96148.31
2023-05-22T08:31:56.979Z,96148.09
2023-05-22T08:34:24.845Z,96150.69
2023-05-22T08:36:51.757Z,96148.25
2023-05-22T08:39:19.139Z,96153.31
2023-05-22T08:41:47.629Z,96156.19
2023-05-22T08:44:14.654Z,96145.34
2023-05-22T08:46:45.338Z,96148.47
2023-05-22T08:49:13.539Z,96143.88
2023-05-22T08:51:44.639Z,96141.25
2023-05-22T08:54:11.516Z,96145.19
2023-05-22T08:56:49.400Z,96139.78
2023-05-22T08:59:23.576Z,96137.94
2023-05-22T09:01:52.272Z,96140.78
2023-05-22T09:04:23.603Z,96143.09
2023-05-22T09:06:51.833Z,96141.34
2023-05-22T09:09:18.813Z,96139.03
2023-05-22T09:11:45.963Z,96141.47
2023-05-22T09:14:13.071Z,96139.94
2023-05-22T09:16:51.790Z,96131.00
2023-05-22T09:19:18.960Z,96139.50
2023-05-22T09:21:46.353Z,96145.91
2023-05-22T09:24:13.416Z,96139.72
2023-05-22T09:26:40.999Z,96145.00
2023-05-22T09:29:08.619Z,96142.22
2023-05-22T09:31:43.522Z,96150.69
2023-05-22T09:34:14.039Z,96148.31
2023-05-22T09:36:42.455Z,96148.09
2023-05-22T09:39:09.729Z,96147.69
2023-05-22T09:41:39.370Z,96149.16
2023-05-22T09:44:14.137Z,96151.44
2023-05-22T09:46:43.329Z,96146.63
2023-05-22T09:49:11.994Z,96141.34
2023-05-22T09:51:41.360Z,96154.72
2023-05-22T09:54:09.725Z,96148.59
2023-05-22T09:56:39.680Z,96151.34
2023-05-22T09:59:09.885Z,96135.69
2023-05-22T10:01:39.837Z,96144.38
2023-05-22T10:04:14.139Z,96148.66
2023-05-22T10:06:42.842Z,96135.41
2023-05-22T10:09:19.684Z,96138.88
2023-05-22T10:11:48.861Z,96148.91
2023-05-22T10:14:16.635Z,96136.34
2023-05-22T10:16:45.253Z,96133.22
2023-05-22T10:19:13.119Z,96134.63
2023-05-22T10:21:41.866Z,96133.72
2023-05-22T10:24:11.084Z,96132.59
2023-05-22T10:26:38.765Z,96138.03
2023-05-22T10:29:13.534Z,96129.88
2023-05-22T10:31:51.642Z,96137.66
2023-05-22T10:34:28.626Z,96133.97
2023-05-22T10:37:30.640Z,96131.97
2023-05-22T10:40:04.886Z,96130.63
2023-05-22T10:42:37.596Z,96132.41
2023-05-22T10:45:08.037Z,96132.69
2023-05-22T10:47:35.615Z,96127.88
2023-05-22T10:50:11.069Z,96125.22
2023-05-22T10:52:39.925Z,96119.78
2023-05-22T10:55:11.211Z,96117.88
2023-05-22T10:57:39.724Z,96122.91
2023-05-22T11:00:18.724Z,96120.19
2023-05-22T11:02:46.178Z,96120.78
2023-05-22T11:05:18.786Z,96115.66
2023-05-22T11:07:45.746Z,96114.75
2023-05-22T11:10:12.639Z,96123.31
2023-05-22T11:12:41.345Z,96115.78
2023-05-22T11:15:11.419Z,96111.22
2023-05-22T11:17:44.951Z,96116.91
2023-05-22T11:20:28.878Z,96113.03
2023-05-22T11:23:05.910Z,96106.56
2023-05-22T11:25:38.078Z,96112.47
2023-05-22T11:28:06.725Z,96105.59
2023-05-22T11:30:34.924Z,96111.00
2023-05-22T11:33:03.109Z,96113.75
2023-05-22T11:35:30.194Z,96111.19
2023-05-22T11:37:57.919Z,96101.16
2023-05-22T11:40:29.279Z,96098.44
2023-05-22T11:42:56.885Z,96103.72
2023-05-22T11:45:24.461Z,96104.81
2023-05-22T11:47:51.569Z,96098.34
2023-05-22T11:52:49.226Z,96092.13
2023-05-22T11:55:16.123Z,96099.34
2023-05-22T11:57:43.211Z,96089.94
2023-05-22T12:00:10.945Z,96093.63
2023-05-22T12:02:37.995Z,96091.28
2023-05-22T12:05:05.505Z,96079.75
2023-05-22T12:07:32.494Z,96086.16
2023-05-22T12:10:00.204Z,96080.81
2023-05-22T12:12:27.160Z,96086.44
2023-05-22T12:14:54.037Z,96080.34
2023-05-22T12:17:20.988Z,96077.50
2023-05-22T12:19:48.165Z,96088.78
2023-05-22T12:22:15.651Z,96084.13
2023-05-22T12:24:47.224Z,96080.88
2023-05-22T12:27:15.032Z,96074.22
2023-05-22T12:29:43.189Z,96072.66
2023-05-22T12:32:12.426Z,96076.59
2023-05-22T12:34:47.973Z,96071.63
2023-05-22T12:37:19.798Z,96071.66
2023-05-22T12:39:56.820Z,96066.28
2023-05-22T12:42:25.228Z,96056.41
2023-05-22T12:44:58.016Z,96067.78
2023-05-22T12:47:25.826Z,96059.94
2023-05-22T12:49:53.261Z,96052.03
2023-05-22T12:52:20.368Z,96057.53
2023-05-22T12:54:47.290Z,96061.09
2023-05-22T12:57:14.225Z,96055.34
2023-05-22T12:59:41.165Z,96050.78
2023-05-22T13:02:08.304Z,96042.25
2023-05-22T13:04:35.322Z,96053.50
2023-05-22T13:07:02.234Z,96041.16
2023-05-22T13:09:29.268Z,96043.22
2023-05-22T13:11:56.426Z,96038.69
2023-05-22T13:14:23.318Z,96033.41
2023-05-22T13:16:50.182Z,96029.13
2023-05-22T13:19:17.205Z,96030.09
2023-05-22T13:21:44.420Z,96026.78
2023-05-22T13:24:11.428Z,96027.66
2023-05-22T13:26:38.292Z,96016.78
2023-05-22T13:29:05.302Z,96021.38
2023-05-22T13:31:37.357Z,96020.09
2023-05-22T13:34:05.314Z,96021.91
2023-05-22T13:36:32.978Z,96019.84
2023-05-22T13:38:59.974Z,96019.53
2023-05-22T13:41:27.043Z,96018.19
2023-05-22T13:43:53.993Z,96011.09
2023-05-22T13:46:22.220Z,96024.00
2023-05-22T13:48:49.377Z,96009.16
2023-05-22T13:51:16.315Z,96000.97
2023-05-22T13:53:43.207Z,96002.50
2023-05-22T13:56:10.117Z,96011.44
2023-05-22T13:58:37.107Z,96013.22
2023-05-22T14:01:04.039Z,96002.31
2023-05-22T14:03:31.047Z,95996.91
2023-05-22T14:05:57.965Z,95998.72
2023-05-22T14:08:25.078Z,96001.31
2023-05-22T14:10:52.060Z,95988.06
2023-05-22T14:13:19.059Z,95985.88
2023-05-22T14:15:49.178Z,95985.00
2023-05-22T14:18:16.635Z,95986.09
2023-05-22T14:20:44.556Z,95979.09
2023-05-22T14:23:13.241Z,95983.63
2023-05-22T14:25:43.448Z,95982.88
2023-05-22T14:28:11.810Z,95978.88
2023-05-22T14:30:39.323Z,95979.22
2023-05-22T14:33:07.206Z,95977.91
2023-05-22T14:35:34.287Z,95972.59
2023-05-22T14:38:01.889Z,95974.66
2023-05-22T14:40:28.926Z,95972.69
2023-05-22T14:42:55.868Z,95967.19
2023-05-22T14:45:22.801Z,95971.72
2023-05-22T14:47:49.966Z,95967.56
2023-05-22T14:50:19.798Z,95970.50
2023-05-22T14:52:49.014Z,95966.22
2023-05-22T14:55:16.769Z,95970.78
2023-05-22T14:57:43.981Z,95978.22
2023-05-22T15:00:12.217Z,95980.56
2023-05-22T15:02:40.262Z,95981.22
2023-05-22T15:05:08.071Z,95979.59
2023-05-22T15:07:44.137Z,95985.31
2023-05-22T15:10:13.001Z,95982.75
2023-05-22T15:12:39.932Z,95980.63
2023-05-22T15:15:07.627Z,95985.16
2023-05-22T15:17:34.564Z,95987.84
2023-05-22T15:20:01.487Z,95975.69
2023-05-22T15:22:28.346Z,95984.84
2023-05-22T15:25:06.940Z,95982.06
2023-05-22T15:27:35.873Z,95986.28
2023-05-22T15:30:04.491Z,95976.91
2023-05-22T15:32:34.729Z,95986.91
2023-05-22T15:35:01.688Z,95983.34
2023-05-22T15:37:32.578Z,95981.41
2023-05-22T15:40:01.433Z,95976.69
2023-05-22T15:42:28.672Z,95976.22
2023-05-22T15:44:55.965Z,95984.88
2023-05-22T15:47:22.824Z,95980.13
2023-05-22T15:49:49.682Z,95980.13
2023-05-22T15:52:16.709Z,95974.97
2023-05-22T15:54:43.588Z,95975.97
2023-05-22T15:57:10.559Z,95978.22
2023-05-22T15:59:37.415Z,95982.53
2023-05-22T16:02:04.588Z,95981.44
2023-05-22T16:04:31.591Z,95978.59
2023-05-22T16:06:58.485Z,95970.84
2023-05-22T16:09:25.340Z,95974.44
2023-05-22T16:11:52.196Z,95966.56
2023-05-22T16:14:19.035Z,95971.38
2023-05-22T16:16:45.908Z,95962.06
2023-05-22T16:19:12.756Z,95965.41
2023-05-22T16:21:39.660Z,95961.91
2023-05-22T16:24:07.039Z,95963.50
2023-05-22T16:26:34.108Z,95956.31
2023-05-22T16:29:01.017Z,95957.47
2023-05-22T16:31:28.753Z,95963.31
2023-05-22T16:33:55.846Z,95957.69
2023-05-22T16:36:23.755Z,95958.38
2023-05-22T16:38:51.986Z,95957.75
2023-05-22T16:41:18.868Z,95962.25
2023-05-22T16:43:45.990Z,95957.81
2023-05-22T16:46:12.883Z,95952.84
2023-05-22T16:48:39.754Z,95957.88
2023-05-22T16:51:06.639Z,95956.16
2023-05-22T16:53:33.532Z,95959.97
2023-05-22T16:56:00.779Z,95960.25
2023-05-22T16:58:27.611Z,95948.66
2023-05-22T17:00:54.644Z,95950.72
2023-05-22T17:03:21.791Z,95957.81
2023-05-22T17:05:49.636Z,95957.22
2023-05-22T17:08:17.057Z,95954.63
2023-05-22T17:10:43.957Z,95950.03
2023-05-22T17:13:19.501Z,95949.59
2023-05-22T17:15:50.580Z,95955.13
2023-05-22T17:18:19.939Z,95955.63
2023-05-22T17:20:51.690Z,95946.59
2023-05-22T17:23:18.575Z,95951.28
2023-05-22T17:25:46.804Z,95954.97
2023-05-22T17:28:17.374Z,95955.25
2023-05-22T17:30:45.956Z,95955.91
2023-05-22T17:33:13.922Z,95956.88
2023-05-22T17:35:41.015Z,95961.53
2023-05-22T17:38:08.530Z,95962.31
2023-05-22T17:40:44.176Z,95964.81
2023-05-22T17:43:13.210Z,95965.75
2023-05-22T17:45:40.338Z,95968.28
2023-05-22T17:48:08.205Z,95974.75
2023-05-22T17:50:35.330Z,95970.75
2023-05-22T17:53:02.259Z,95968.47
2023-05-22T17:55:29.205Z,95972.91
2023-05-22T17:57:56.308Z,95970.94
2023-05-22T18:00:23.322Z,95972.00
2023-05-22T18:02:50.484Z,95973.94
2023-05-22T18:05:17.553Z,95979.84
2023-05-22T18:07:44.478Z,95980.72
2023-05-22T18:10:11.575Z,95981.19
2023-05-22T18:12:38.697Z,95980.84
2023-05-22T18:15:09.371Z,95976.66
2023-05-22T18:17:36.338Z,95974.69
2023-05-22T18:20:06.229Z,95984.69
2023-05-22T18:22:33.061Z,95985.50
2023-05-22T18:24:59.983Z,95978.66
2023-05-22T18:27:27.721Z,95983.34
2023-05-22T18:29:55.485Z,95981.97
2023-05-22T18:32:22.771Z,95978.84
2023-05-22T18:34:49.699Z,95981.88
2023-05-22T18:37:16.586Z,95984.25
2023-05-22T18:39:43.427Z,95992.00
2023-05-22T18:42:10.396Z,95991.56
2023-05-22T18:44:37.640Z,95999.16
2023-05-22T18:47:04.857Z,96001.63
2023-05-22T18:49:32.091Z,96007.16
2023-05-22T18:51:59.032Z,96009.63
2023-05-22T18:54:26.888Z,96018.91
2023-05-22T18:56:53.820Z,96018.53
2023-05-22T18:59:20.892Z,96020.63
2023-05-22T19:01:47.764Z,96027.28
2023-05-22T19:04:14.665Z,96027.56
2023-05-22T19:06:41.986Z,96036.75
2023-05-22T19:09:12.060Z,96029.78
2023-05-22T19:11:39.381Z,96029.19
2023-05-22T19:14:06.233Z,96040.00
2023-05-22T19:16:33.169Z,96038.44
2023-05-22T19:19:00.099Z,96043.88
2023-05-22T19:21:27.099Z,96054.66
2023-05-22T19:23:53.987Z,96036.03
2023-05-22T19:26:21.065Z,96045.78
2023-05-22T19:28:47.887Z,96056.53
2023-05-22T19:31:14.754Z,96053.97
2023-05-22T19:33:41.607Z,96056.44
2023-05-22T19:36:08.441Z,96057.91
2023-05-22T19:38:35.381Z,96063.03
2023-05-22T19:41:02.302Z,96061.56
2023-05-22T19:43:31.286Z,96052.50
2023-05-22T19:45:58.511Z,96068.03
2023-05-22T19:48:25.673Z,96063.50
2023-05-22T19:50:52.913Z,96064.59
2023-05-22T19:53:19.759Z,96074.00
2023-05-22T19:55:47.575Z,96079.34
2023-05-22T19:58:14.512Z,96071.09
2023-05-22T20:00:41.697Z,96077.00
2023-05-22T20:03:09.764Z,96078.59
2023-05-22T20:05:37.113Z,96079.16
2023-05-22T20:08:03.965Z,96089.38
2023-05-22T20:10:33.310Z,96081.63
2023-05-22T20:13:00.391Z,96084.09
2023-05-22T20:15:27.343Z,96076.59
2023-05-22T20:17:54.347Z,96091.03
2023-05-22T20:20:24.039Z,96091.56
2023-05-22T20:22:52.685Z,96084.09
2023-05-22T20:25:21.303Z,96090.53
2023-05-22T20:27:48.156Z,96089.97
2023-05-22T20:30:15.259Z,96084.09
2023-05-22T20:32:46.649Z,96085.16
2023-05-22T20:35:13.858Z,96096.13
2023-05-22T20:37:41.584Z,96090.78
2023-05-22T20:40:09.521Z,96094.78
2023-05-22T20:42:37.663Z,96100.94
2023-05-22T20:45:06.102Z,96093.47
2023-05-22T20:47:36.137Z,96108.66
2023-05-22T20:50:03.537Z,96112.41
2023-05-22T20:52:30.421Z,96109.19
2023-05-22T20:54:58.231Z,96109.97
2023-05-22T20:57:25.519Z,96110.78
2023-05-22T20:59:55.959Z,96111.88
2023-05-22T21:02:22.854Z,96114.00
2023-05-22T21:04:49.678Z,96112.16
2023-05-22T21:07:18.062Z,96095.59
2023-05-22T21:09:44.951Z,96102.81
2023-05-22T21:12:11.824Z,96099.06
2023-05-22T21:14:38.693Z,96096.94
2023-05-22T21:17:06.027Z,96097.75
2023-05-22T21:19:33.003Z,96110.81
2023-05-22T21:22:00.118Z,96116.16
2023-05-22T21:24:27.092Z,96117.69
2023-05-22T21:26:54.129Z,96108.59
2023-05-22T21:29:21.058Z,96109.66
2023-05-22T21:31:48.150Z,96104.84
2023-05-22T21:34:15.256Z,96109.63
2023-05-22T21:36:42.520Z,96108.53
2023-05-22T21:39:09.615Z,96109.81
2023-05-22T21:41:36.554Z,96108.41
2023-05-22T21:44:03.405Z,96112.66
2023-05-22T21:46:30.324Z,96121.22
2023-05-22T21:48:57.309Z,96130.84
2023-05-22T21:51:24.204Z,96123.88
2023-05-22T21:53:51.073Z,96123.34
2023-05-22T21:56:19.002Z,96122.28
2023-05-22T21:58:45.929Z,96119.56
2023-05-22T22:01:12.841Z,96119.06
2023-05-22T22:03:39.790Z,96109.38
2023-05-22T22:06:06.946Z,96105.13
2023-05-22T22:08:33.868Z,96098.22
2023-05-22T22:11:00.908Z,96096.91
2023-05-22T22:13:27.773Z,96099.84
2023-05-22T22:15:54.901Z,96108.88
2023-05-22T22:18:22.023Z,96103.06
2023-05-22T22:20:53.875Z,96104.59
2023-05-22T22:23:21.900Z,96115.78
2023-05-22T22:25:49.415Z,96112.56
2023-05-22T22:28:16.601Z,96106.50
2023-05-22T22:30:43.508Z,96108.13
2023-05-22T22:33:11.828Z,96112.69
2023-05-22T22:35:39.557Z,96103.06
2023-05-22T22:38:06.590Z,96107.06
2023-05-22T22:40:33.434Z,96102.53
2023-05-22T22:43:00.287Z,96097.72
2023-05-22T22:45:27.216Z,96096.69
2023-05-22T22:47:56.347Z,96104.13
2023-05-22T22:50:26.168Z,96097.97
2023-05-22T22:52:53.028Z,96102.00
2023-05-22T22:55:20.074Z,96103.88
2023-05-22T22:57:49.838Z,96101.50
2023-05-22T23:00:18.895Z,96110.00
2023-05-22T23:02:46.082Z,96108.94
2023-05-22T23:05:13.400Z,96112.09
2023-05-22T23:07:40.308Z,96110.47
2023-05-22T23:10:08.258Z,96112.53
2023-05-22T23:12:36.222Z,96111.41
2023-05-22T23:15:03.709Z,96122.63
2023-05-22T23:17:30.862Z,96120.75
2023-05-22T23:19:57.864Z,96124.22
2023-05-22T23:22:24.801Z,96113.44
2023-05-22T23:24:51.745Z,96124.59
2023-05-22T23:27:18.675Z,96123.53
2023-05-22T23:29:45.581Z,96131.97
2023-05-22T23:32:14.532Z,96130.91
2023-05-22T23:34:42.274Z,96136.38
2023-05-22T23:37:10.138Z,96128.63
2023-05-22T23:39:37.006Z,96131.28
2023-05-22T23:42:03.975Z,96129.69
2023-05-22T23:44:31.499Z,96128.00
2023-05-22T23:46:58.485Z,96136.84
2023-05-22T23:49:26.375Z,96142.44
2023-05-22T23:51:53.386Z,96145.97
2023-05-22T23:54:20.313Z,96148.88
2023-05-22T23:56:47.230Z,96147.06
2023-05-22T23:59:14.161Z,96143.59
